Time;durP1;ratioP1;P1;durP2;ratioP2;P2;SDS_P1;SDS_P2;PMS_P1;PMS_P2;Temp;Humidity;BMP_temperature;BMP_pressure;BME280_temperature;BME280_humidity;BME280_pressure;Samples;Min_cycle;Max_cycle;Signal;HPM_P1;HPM_P2
2022/10/17 00:00:30;;;;;;;7.67;3.23;;;;;;;10.11;100.00;101535.50;5042900;28;20205;-73
2022/10/17 00:02:55;;;;;;;7.30;2.90;;;;;;;11.43;100.00;101785.72;5041877;28;20186;-73
2022/10/17 00:05:21;;;;;;;6.20;3.03;;;;;;;10.18;100.00;101584.69;5043445;28;20203;-73
2022/10/17 00:07:47;;;;;;;5.90;3.10;;;;;;;10.16;100.00;101626.94;5044280;28;20221;-73
2022/10/17 00:10:12;;;;;;;6.60;3.10;;;;;;;10.53;100.00;101665.59;5042066;28;20543;-73
2022/10/17 00:12:38;;;;;;;8.77;3.17;;;;;;;10.38;100.00;101630.66;5041094;28;20208;-73
2022/10/17 00:15:06;;;;;;;6.20;2.90;;;;;;;11.18;100.00;101734.06;5042543;28;20218;-73
2022/10/17 00:17:31;;;;;;;7.03;2.60;;;;;;;12.14;100.00;101936.81;5047356;28;20196;-73
2022/10/17 00:20:00;;;;;;;5.40;2.57;;;;;;;10.25;100.00;101617.81;5044582;28;20466;-73
2022/10/17 00:22:26;;;;;;;8.67;2.40;;;;;;;10.85;100.00;101702.13;5048685;28;20338;-73
2022/10/17 00:24:51;;;;;;;3.93;2.50;;;;;;;12.03;100.00;101899.59;5045487;28;20457;-73
2022/10/17 00:27:17;;;;;;;5.03;3.00;;;;;;;11.45;100.00;101779.13;5048635;28;20446;-73
2022/10/17 00:29:42;;;;;;;6.50;3.17;;;;;;;11.08;100.00;101723.59;5040194;28;20222;-73
2022/10/17 00:32:07;;;;;;;7.23;3.30;;;;;;;11.43;100.00;101758.88;5046717;28;20237;-73
2022/10/17 00:34:33;;;;;;;5.03;2.47;;;;;;;12.09;100.00;101869.28;5033780;28;25188;-73
2022/10/17 00:36:58;;;;;;;10.93;3.67;;;;;;;11.36;100.00;101769.47;5042241;28;20203;-73
2022/10/17 00:39:24;;;;;;;6.67;2.50;;;;;;;11.37;100.00;101771.16;5043159;28;20630;-73
2022/10/17 00:41:49;;;;;;;9.80;3.23;;;;;;;12.07;100.00;101863.28;5044512;28;25068;-73
2022/10/17 00:44:30;;;;;;;9.00;2.90;;;;;;;12.27;100.00;101877.84;5045411;28;20193;-73
2022/10/17 00:47:09;;;;;;;5.10;2.70;;;;;;;12.03;100.00;101840.44;5047111;28;20222;-73
2022/10/17 00:49:37;;;;;;;10.17;2.87;;;;;;;12.21;100.00;101865.97;5038298;28;20494;-73
2022/10/17 00:52:10;;;;;;;7.27;2.40;;;;;;;12.30;100.00;101864.03;5038120;28;21151;-73
2022/10/17 00:54:48;;;;;;;6.60;2.87;;;;;;;11.82;100.00;101798.94;5029056;28;20462;-73
2022/10/17 00:57:15;;;;;;;7.40;3.57;;;;;;;12.02;100.00;101809.19;5030571;28;20445;-73
2022/10/17 00:59:43;;;;;;;11.37;3.50;;;;;;;11.69;100.00;101742.31;5029634;28;20439;-73
2022/10/17 01:02:12;;;;;;;8.20;2.73;;;;;;;12.30;100.00;101847.88;5032446;28;20468;-73
2022/10/17 01:04:40;;;;;;;5.63;3.13;;;;;;;11.91;100.00;101773.66;5044767;28;20460;-73
2022/10/17 01:07:06;;;;;;;9.20;2.40;;;;;;;12.27;100.00;101837.50;5038344;28;20444;-73
2022/10/17 01:09:32;;;;;;;8.77;3.27;;;;;;;11.49;100.00;101699.03;5043273;28;20469;-73
2022/10/17 01:12:09;;;;;;;11.00;2.37;;;;;;;12.27;100.00;101837.50;5047416;28;20305;-73
2022/10/17 01:14:53;;;;;;;6.20;2.53;;;;;;;11.74;100.00;101751.50;5048310;28;20182;-73
2022/10/17 01:17:44;;;;;;;6.30;2.67;;;;;;;12.31;100.00;101843.34;5044080;28;20976;-73
2022/10/17 01:20:40;;;;;;;8.70;2.20;;;;;;;11.77;100.00;101755.66;5041586;28;20904;-73
2022/10/17 01:23:23;;;;;;;7.37;2.53;;;;;;;12.43;100.00;101831.06;5045628;28;20438;-73
2022/10/17 01:26:01;;;;;;;4.33;2.27;;;;;;;12.46;100.00;101833.38;5045190;28;20440;-73
2022/10/17 01:29:03;;;;;;;4.27;1.50;;;;;;;12.51;100.00;101832.84;5044943;28;20492;-73
2022/10/17 01:31:38;;;;;;;6.03;1.80;;;;;;;12.44;100.00;101824.69;5046464;28;20450;-73
2022/10/17 01:34:19;;;;;;;8.40;2.53;;;;;;;11.98;100.00;101736.97;5051208;28;20928;-73
2022/10/17 01:37:01;;;;;;;4.50;1.97;;;;;;;11.66;100.00;101697.00;5047400;28;20517;-73
2022/10/17 01:39:40;;;;;;;3.97;1.80;;;;;;;12.55;100.00;101828.75;5044920;28;20498;-73
2022/10/17 01:42:37;;;;;;;5.93;2.23;;;;;;;12.63;100.00;101825.94;5038688;28;20483;-73
2022/10/17 01:45:15;;;;;;;7.80;2.00;;;;;;;12.64;100.00;101814.16;5040421;28;20696;-73
2022/10/17 01:47:41;;;;;;;5.60;2.23;;;;;;;12.12;100.00;101721.00;5043161;28;20780;-73
2022/10/17 01:50:19;;;;;;;4.63;2.00;;;;;;;12.70;100.00;101809.88;5045253;28;20516;-73
2022/10/17 01:52:49;;;;;;;5.23;2.10;;;;;;;12.22;100.00;101721.56;5043052;28;20992;-73
2022/10/17 01:55:20;;;;;;;4.60;1.97;;;;;;;12.75;100.00;101784.06;5041261;28;20445;-73
2022/10/17 01:57:51;;;;;;;5.87;2.20;;;;;;;12.78;100.00;101807.06;5043566;28;20469;-72
2022/10/17 02:00:21;;;;;;;4.83;2.40;;;;;;;11.98;100.00;101669.75;5045885;28;20949;-73
2022/10/17 02:02:51;;;;;;;5.07;1.90;;;;;;;12.18;100.00;101686.13;5058559;28;20855;-73
2022/10/17 02:05:20;;;;;;;4.80;2.00;;;;;;;12.19;100.00;101678.91;5046096;28;20441;-73
2022/10/17 02:07:46;;;;;;;10.67;3.13;;;;;;;11.86;100.00;101620.19;5047379;28;20515;-73
2022/10/17 02:10:24;;;;;;;8.30;2.53;;;;;;;12.85;100.00;101775.69;5048289;28;20885;-73
2022/10/17 02:13:09;;;;;;;6.70;2.50;;;;;;;12.79;100.00;101742.28;5042355;28;20192;-73
2022/10/17 02:15:49;;;;;;;2.40;1.90;;;;;;;12.56;100.00;101690.50;5060364;28;20462;-73
2022/10/17 02:18:28;;;;;;;5.73;1.90;;;;;;;12.53;100.00;101663.97;5038228;28;20533;-73
2022/10/17 02:21:00;;;;;;;16.57;3.47;;;;;;;12.97;100.00;101749.91;5042264;28;20466;-73
2022/10/17 02:23:47;;;;;;;6.70;2.30;;;;;;;12.37;100.00;101657.78;5034716;28;20449;-73
2022/10/17 02:26:23;;;;;;;7.47;2.20;;;;;;;12.99;100.00;101739.78;5036387;28;20828;-73
2022/10/17 02:28:58;;;;;;;3.30;2.10;;;;;;;12.47;100.00;101670.94;5037521;28;20454;-73
2022/10/17 02:31:38;;;;;;;5.43;2.03;;;;;;;12.54;100.00;101676.38;5044435;28;20494;-73
2022/10/17 02:34:11;;;;;;;5.07;2.37;;;;;;;12.39;100.00;101658.44;5032450;28;20478;-73
2022/10/17 02:36:46;;;;;;;5.60;2.43;;;;;;;12.70;100.00;101692.28;5036976;28;20430;-73
2022/10/17 02:39:12;;;;;;;5.27;2.67;;;;;;;12.76;100.00;101707.66;5045821;28;20433;-73
2022/10/17 02:41:39;;;;;;;5.63;2.43;;;;;;;12.93;100.00;101731.63;5044588;28;20497;-73
2022/10/17 02:44:07;;;;;;;5.30;2.27;;;;;;;12.39;100.00;101639.59;5041694;28;20525;-73
2022/10/17 02:46:34;;;;;;;3.00;2.07;;;;;;;12.39;100.00;101619.94;5037821;28;20544;-73
2022/10/17 02:49:26;;;;;;;5.23;2.00;;;;;;;12.88;100.00;101708.81;5039793;28;20561;-73
2022/10/17 02:52:02;;;;;;;4.40;2.10;;;;;;;12.28;100.00;101607.81;5042422;28;20548;-73
2022/10/17 02:54:44;;;;;;;4.70;2.17;;;;;;;12.96;100.00;101726.72;5039086;28;20539;-73
2022/10/17 02:57:32;;;;;;;4.77;2.23;;;;;;;12.94;100.00;101709.09;5039995;28;20446;-73
2022/10/17 03:00:01;;;;;;;3.10;2.03;;;;;;;12.90;100.00;101727.47;5039728;28;20429;-73
2022/10/17 03:02:27;;;;;;;4.93;2.10;;;;;;;12.81;100.00;101699.84;5041340;28;20528;-73
2022/10/17 03:04:52;;;;;;;5.83;2.27;;;;;;;11.80;100.00;101569.81;5037735;28;20933;-73
2022/10/17 03:07:17;;;;;;;3.40;2.00;;;;;;;12.89;100.00;101725.81;5043035;28;20292;-73
2022/10/17 03:09:43;;;;;;;5.33;2.80;;;;;;;12.61;100.00;101678.13;5042703;28;20605;-73
2022/10/17 03:12:08;;;;;;;3.03;2.40;;;;;;;12.22;100.00;101619.34;5040241;28;20208;-73
2022/10/17 03:14:34;;;;;;;6.83;2.30;;;;;;;12.86;100.00;101700.09;5039768;28;20194;-73
2022/10/17 03:16:59;;;;;;;6.83;2.50;;;;;;;12.10;100.00;101580.53;5042606;28;20188;-73
2022/10/17 03:19:24;;;;;;;5.07;2.40;;;;;;;12.15;100.00;101596.91;5035072;28;20235;-73
2022/10/17 03:21:50;;;;;;;4.13;2.23;;;;;;;12.18;100.00;101601.94;5039649;28;20208;-73
2022/10/17 03:24:15;;;;;;;4.67;2.27;;;;;;;12.50;100.00;101638.25;5046814;28;20198;-73
2022/10/17 03:26:41;;;;;;;3.57;2.20;;;;;;;12.80;100.00;101706.25;5042501;28;20195;-73
2022/10/17 03:29:06;;;;;;;5.50;2.40;;;;;;;12.84;100.00;101709.38;5045161;28;20587;-73
2022/10/17 03:31:31;;;;;;;4.83;2.90;;;;;;;12.71;100.00;101688.56;5040128;28;20205;-74
2022/10/17 03:33:57;;;;;;;6.43;2.43;;;;;;;12.33;100.00;101639.53;5039436;28;20691;-73
2022/10/17 03:36:22;;;;;;;3.27;2.30;;;;;;;12.11;100.00;101599.16;5038452;28;20210;-74
2022/10/17 03:38:48;;;;;;;4.13;2.67;;;;;;;12.62;100.00;101671.72;5052629;28;20195;-73
2022/10/17 03:41:13;;;;;;;6.30;2.60;;;;;;;12.59;100.00;101672.09;5050492;28;20580;-73
2022/10/17 03:43:39;;;;;;;7.70;3.30;;;;;;;12.69;100.00;101682.53;5052418;28;20191;-73
2022/10/17 03:46:05;;;;;;;3.00;1.80;;;;;;;12.78;100.00;101708.28;5046391;28;20187;-73
2022/10/17 03:48:31;;;;;;;5.37;2.70;;;;;;;12.71;100.00;101714.66;5053081;28;20477;-73
2022/10/17 03:51:15;;;;;;;5.43;2.33;;;;;;;11.97;100.00;101597.34;5051844;28;20540;-73
2022/10/17 03:53:40;;;;;;;4.13;2.43;;;;;;;12.57;100.00;101665.22;5051744;28;20199;-73
2022/10/17 03:56:14;;;;;;;3.17;2.00;;;;;;;12.76;100.00;101683.44;5049700;28;25136;-73
2022/10/17 03:58:41;;;;;;;3.57;1.80;;;;;;;11.86;100.00;101571.81;5052723;28;20193;-73
2022/10/17 04:01:09;;;;;;;7.30;2.67;;;;;;;11.64;100.00;101537.81;5050880;28;20456;-73
2022/10/17 04:03:35;;;;;;;6.10;2.73;;;;;;;12.58;100.00;101683.91;5051633;28;20583;-73
2022/10/17 04:06:02;;;;;;;3.47;2.67;;;;;;;12.41;100.00;101648.31;5050618;28;20440;-73
2022/10/17 04:08:28;;;;;;;5.13;2.70;;;;;;;11.89;100.00;101574.09;5050279;28;20482;-73
2022/10/17 04:11:01;;;;;;;4.13;2.30;;;;;;;12.60;100.00;101681.81;5046023;28;20458;-73
2022/10/17 04:13:27;;;;;;;5.30;3.03;;;;;;;12.49;100.00;101663.50;5049032;28;20434;-73
2022/10/17 04:15:59;;;;;;;5.80;2.57;;;;;;;11.77;100.00;101564.81;5052498;28;20433;-73
2022/10/17 04:18:24;;;;;;;4.10;2.90;;;;;;;12.49;100.00;101671.56;5051707;28;20450;-73
2022/10/17 04:20:50;;;;;;;4.30;2.60;;;;;;;12.46;100.00;101679.19;5046705;28;20470;-73
2022/10/17 04:23:16;;;;;;;4.40;2.40;;;;;;;12.15;100.00;101627.34;5053032;28;20206;-73
2022/10/17 04:25:41;;;;;;;4.83;2.70;;;;;;;12.05;100.00;101625.97;5049350;28;20503;-73
2022/10/17 04:28:07;;;;;;;3.10;2.40;;;;;;;12.03;100.00;101620.78;5046249;28;20262;-73
2022/10/17 04:30:32;;;;;;;5.90;2.63;;;;;;;12.19;100.00;101652.81;5042233;28;20237;-73
2022/10/17 04:32:58;;;;;;;5.30;3.87;;;;;;;12.41;100.00;101685.13;5050268;28;20648;-73
2022/10/17 04:35:23;;;;;;;4.70;2.93;;;;;;;12.29;100.00;101663.28;5040263;28;20641;-73
2022/10/17 04:37:48;;;;;;;6.20;3.07;;;;;;;12.29;100.00;101657.06;5052445;28;20214;-73
2022/10/17 04:40:14;;;;;;;3.40;2.57;;;;;;;11.89;100.00;101592.06;5049736;28;20184;-73
2022/10/17 04:42:39;;;;;;;2.97;2.30;;;;;;;11.72;100.00;101562.72;5050087;28;20330;-74
2022/10/17 04:45:05;;;;;;;5.10;3.10;;;;;;;11.71;100.00;101573.63;5040953;28;20183;-73
2022/10/17 04:47:31;;;;;;;5.87;2.50;;;;;;;11.64;100.00;101541.31;5043678;28;20184;-74
2022/10/17 04:49:56;;;;;;;5.47;3.10;;;;;;;12.37;100.00;101657.78;5049009;28;20526;-73
2022/10/17 04:52:22;;;;;;;3.10;2.47;;;;;;;11.88;100.00;101575.13;5053641;28;20218;-73
2022/10/17 04:54:47;;;;;;;5.37;2.57;;;;;;;12.42;100.00;101660.75;5044066;28;20369;-73
2022/10/17 04:57:13;;;;;;;3.00;2.40;;;;;;;12.49;100.00;101673.44;5055771;28;20196;-74
2022/10/17 04:59:39;;;;;;;4.23;3.23;;;;;;;11.63;100.00;101541.50;5055139;28;20690;-73
2022/10/17 05:02:04;;;;;;;3.57;2.60;;;;;;;12.06;100.00;101596.19;5055090;28;20544;-73
2022/10/17 05:04:29;;;;;;;7.73;2.93;;;;;;;12.30;100.00;101650.69;5049272;28;20684;-73
2022/10/17 05:06:55;;;;;;;4.97;3.43;;;;;;;11.86;100.00;101563.75;5047237;28;20250;-74
2022/10/17 05:09:20;;;;;;;5.53;3.53;;;;;;;12.46;100.00;101679.19;5050919;28;20203;-73
2022/10/17 05:11:46;;;;;;;6.40;3.43;;;;;;;11.95;100.00;101589.47;5054543;28;20702;-74
2022/10/17 05:14:11;;;;;;;4.90;3.10;;;;;;;12.51;100.00;101669.53;5053620;28;20249;-73
2022/10/17 05:16:36;;;;;;;3.53;3.23;;;;;;;11.77;100.00;101556.75;5057242;28;20195;-73
2022/10/17 05:19:02;;;;;;;5.07;3.60;;;;;;;12.07;100.00;101602.44;5052189;28;25070;-73
2022/10/17 05:21:29;;;;;;;3.70;3.40;;;;;;;12.23;100.00;101591.41;5054957;28;20799;-74
2022/10/17 05:23:54;;;;;;;4.40;3.33;;;;;;;12.01;100.00;101558.31;5056251;28;20232;-73
2022/10/17 05:26:21;;;;;;;6.10;3.70;;;;;;;12.67;100.00;101652.31;5057879;28;20855;-74
2022/10/17 05:28:47;;;;;;;6.80;4.27;;;;;;;11.66;100.00;101477.47;5059264;28;20205;-74
2022/10/17 05:31:12;;;;;;;4.00;3.63;;;;;;;12.40;100.00;101606.28;5055914;28;20467;-73
2022/10/17 05:33:38;;;;;;;5.00;4.20;;;;;;;12.27;100.00;101591.88;5054792;28;20220;-74
2022/10/17 05:36:04;;;;;;;4.23;3.83;;;;;;;12.75;100.00;101665.59;5054018;28;20233;-74
2022/10/17 05:38:30;;;;;;;7.23;4.50;;;;;;;12.44;100.00;101634.47;5056551;28;20430;-73
2022/10/17 05:40:59;;;;;;;6.80;4.60;;;;;;;11.83;100.00;101539.03;5056323;28;20540;-74
2022/10/17 05:43:25;;;;;;;3.40;3.10;;;;;;;12.84;100.00;101677.06;5052880;23;20234;-70
2022/10/17 05:45:50;;;;;;;4.70;4.30;;;;;;;12.91;100.00;101682.53;5027806;28;20949;-70
2022/10/17 05:48:16;;;;;;;5.63;4.67;;;;;;;12.96;100.00;101693.53;5026619;28;20197;-70
2022/10/17 05:50:41;;;;;;;5.90;4.80;;;;;;;12.72;100.00;101628.31;5027494;28;20192;-71
2022/10/17 05:53:07;;;;;;;5.57;5.07;;;;;;;13.00;100.00;101676.00;5018663;28;20661;-70
2022/10/17 05:55:32;;;;;;;5.50;5.00;;;;;;;13.05;100.00;101671.69;5025042;28;20243;-70
2022/10/17 05:57:59;;;;;;;6.30;4.90;;;;;;;13.00;100.00;101662.53;5025255;28;20589;-70
2022/10/17 06:00:25;;;;;;;4.80;3.93;;;;;;;12.63;100.00;101587.25;5025900;28;25071;-70
2022/10/17 06:02:50;;;;;;;5.63;5.07;;;;;;;13.15;100.00;101667.81;5026547;28;20463;-70
2022/10/17 06:05:15;;;;;;;5.97;5.17;;;;;;;13.09;100.00;101655.97;5025005;28;21169;-70
2022/10/17 06:07:41;;;;;;;10.00;5.53;;;;;;;13.16;100.00;101664.09;5024599;28;20656;-70
2022/10/17 06:10:07;;;;;;;5.33;4.80;;;;;;;13.17;100.00;101652.31;5026904;28;20237;-70
2022/10/17 06:12:33;;;;;;;6.47;5.00;;;;;;;13.18;100.00;101652.09;5028232;28;20203;-70
2022/10/17 06:14:58;;;;;;;6.33;5.10;;;;;;;12.66;100.00;101545.66;5024225;28;21133;-70
2022/10/17 06:17:24;;;;;;;5.87;5.03;;;;;;;12.96;100.00;101572.38;5025559;28;20197;-70
2022/10/17 06:19:49;;;;;;;5.13;4.73;;;;;;;13.25;100.00;101611.72;5022833;28;20235;-70
2022/10/17 06:22:15;;;;;;;6.47;5.90;;;;;;;13.29;100.00;101623.81;5021731;28;25138;-71
2022/10/17 06:24:41;;;;;;;8.03;5.10;;;;;;;13.16;100.00;101591.34;5022982;28;20193;-71
2022/10/17 06:27:07;;;;;;;6.87;5.70;;;;;;;13.26;100.00;101622.34;5024398;28;20657;-71
2022/10/17 06:29:32;;;;;;;6.40;5.80;;;;;;;13.30;100.00;101628.16;5023989;28;20465;-71
2022/10/17 06:31:58;;;;;;;7.33;6.57;;;;;;;13.10;100.00;101603.75;5036176;28;20958;-69
2022/10/17 06:34:23;;;;;;;8.70;6.87;;;;;;;13.27;100.00;101639.34;5025623;28;20251;-70
2022/10/17 06:36:49;;;;;;;7.43;6.73;;;;;;;13.32;100.00;101651.19;5026957;28;20184;-69
2022/10/17 06:39:14;;;;;;;6.00;5.50;;;;;;;13.23;100.00;101641.56;5027478;28;20222;-70
2022/10/17 06:41:43;;;;;;;6.97;6.10;;;;;;;13.34;100.00;101661.78;5026256;28;20191;-70
2022/10/17 06:44:10;;;;;;;6.43;5.83;;;;;;;13.37;100.00;101676.72;5025742;28;25076;-70
2022/10/17 06:46:36;;;;;;;7.90;5.80;;;;;;;13.36;100.00;101653.47;5026316;28;20443;-70
2022/10/17 06:49:03;;;;;;;7.90;5.40;;;;;;;13.32;100.00;101661.97;5025717;28;20535;-70
2022/10/17 06:51:29;;;;;;;6.97;6.23;;;;;;;12.84;100.00;101597.16;5023008;28;20451;-70
2022/10/17 06:53:56;;;;;;;6.60;5.70;;;;;;;13.39;100.00;101683.56;5024578;28;20459;-70
2022/10/17 06:56:22;;;;;;;7.97;6.20;;;;;;;12.60;100.00;101549.13;5026445;28;20432;-70
2022/10/17 06:58:49;;;;;;;7.23;6.57;;;;;;;13.36;100.00;101688.50;5024901;28;20434;-70
2022/10/17 07:01:15;;;;;;;7.40;5.63;;;;;;;13.38;100.00;101705.31;5025484;28;20868;-70
2022/10/17 07:03:42;;;;;;;6.70;6.00;;;;;;;13.42;100.00;101723.59;5026730;28;20451;-70
2022/10/17 07:06:10;;;;;;;6.60;6.00;;;;;;;13.51;100.00;101726.97;5023784;28;20274;-70
2022/10/17 07:08:36;;;;;;;6.90;6.30;;;;;;;13.20;100.00;101697.69;5023243;28;20464;-70
2022/10/17 07:11:12;;;;;;;7.57;5.80;;;;;;;13.52;100.00;101724.09;5025877;28;20440;-70
2022/10/17 07:13:38;;;;;;;7.03;6.33;;;;;;;13.54;100.00;101727.44;5024155;28;20451;-70
2022/10/17 07:16:04;;;;;;;6.57;5.97;;;;;;;13.57;100.00;101727.03;5025904;28;20955;-70
2022/10/17 07:18:29;;;;;;;6.33;5.77;;;;;;;12.64;100.00;101558.47;5021323;28;21947;-70
2022/10/17 07:20:54;;;;;;;6.73;5.70;;;;;;;12.86;100.00;101583.50;5026579;28;20192;-69
2022/10/17 07:23:21;;;;;;;6.87;6.00;;;;;;;13.60;100.00;101709.63;5021026;28;20239;-70
2022/10/17 07:25:46;;;;;;;7.73;5.87;;;;;;;13.67;100.00;101715.06;5022864;28;20284;-70
2022/10/17 07:28:13;;;;;;;7.23;5.87;;;;;;;13.57;100.00;101693.84;5021423;28;20433;-70
2022/10/17 07:30:39;;;;;;;6.20;5.60;;;;;;;13.77;100.00;101712.84;5024955;28;20192;-70
2022/10/17 07:33:04;;;;;;;7.10;6.30;;;;;;;13.72;100.00;101699.97;5026725;28;20449;-70
2022/10/17 07:35:30;;;;;;;6.63;6.03;;;;;;;13.15;100.00;101589.69;5026230;28;20188;-70
2022/10/17 07:37:55;;;;;;;7.17;5.93;;;;;;;13.33;100.00;101622.38;5021531;28;20276;-70
2022/10/17 07:40:21;;;;;;;11.23;7.43;;;;;;;13.37;100.00;101631.75;5025734;28;20632;-70
2022/10/17 07:42:46;;;;;;;10.63;6.20;;;;;;;13.95;100.00;101701.53;5024510;28;20251;-70
2022/10/17 07:45:11;;;;;;;7.63;6.00;;;;;;;14.16;100.00;101736.47;5026558;28;20305;-70
2022/10/17 07:47:37;;;;;;;7.00;6.30;;;;;;;14.02;100.00;101703.22;5026560;28;20180;-70
2022/10/17 07:50:04;;;;;;;11.40;7.20;;;;;;;13.48;100.00;101603.38;5022496;28;20212;-71
2022/10/17 07:52:29;;;;;;;6.57;5.97;;;;;;;14.44;100.00;101730.16;5024658;28;20219;-70
2022/10/17 07:54:55;;;;;;;8.00;6.70;;;;;;;13.63;100.00;101587.09;5018451;28;20443;-70
2022/10/17 07:57:20;;;;;;;7.07;6.40;;;;;;;14.05;100.00;101658.81;5025797;28;20203;-71
2022/10/17 07:59:46;;;;;;;10.47;7.30;;;;;;;14.66;100.00;101756.00;5023307;28;20226;-70
2022/10/17 08:02:25;;;;;;;13.67;7.90;;;;;;;14.49;100.00;101700.69;5025927;28;20212;-70
2022/10/17 08:04:52;;;;;;;8.03;6.53;;;;;;;14.59;100.00;101705.75;5024205;28;20428;-70
2022/10/17 08:07:18;;;;;;;7.83;6.37;;;;;;;14.91;100.00;101760.84;5024947;28;25102;-70
2022/10/17 08:09:44;;;;;;;7.63;6.83;;;;;;;15.00;100.00;101764.19;5019966;28;20469;-70
2022/10/17 08:12:09;;;;;;;7.77;6.80;;;;;;;15.00;100.00;101751.50;5025036;28;20447;-70
2022/10/17 08:14:35;;;;;;;7.33;6.47;;;;;;;15.02;100.00;101748.63;5026037;28;20299;-70
2022/10/17 08:17:00;;;;;;;8.07;7.27;;;;;;;14.98;100.00;101726.56;5021991;28;20196;-70
2022/10/17 08:19:26;;;;;;;7.03;6.43;;;;;;;15.27;100.00;101771.28;5023118;28;20669;-70
2022/10/17 08:21:53;;;;;;;8.30;7.33;;;;;;;15.30;100.00;101773.59;5021297;28;20627;-70
2022/10/17 08:24:18;;;;;;;12.70;8.30;;;;;;;15.17;100.00;101737.59;5023432;28;20192;-70
2022/10/17 08:26:44;;;;;;;10.77;7.97;;;;;;;15.36;100.00;101743.00;5026113;28;20498;-70
2022/10/17 08:29:13;;;;;;;10.37;7.30;;;;;;;15.67;100.00;101760.44;5028767;28;20568;-70
2022/10/17 08:31:42;;;;;;;10.60;7.63;;;;;;;15.74;100.00;101771.31;5028540;28;20562;-73
2022/10/17 08:34:07;;;;;;;8.57;7.63;;;;;;;15.76;100.00;101775.44;5026138;28;20462;-72
2022/10/17 08:36:33;;;;;;;10.40;8.20;;;;;;;15.64;100.00;101747.34;5038627;28;21033;-72
2022/10/17 08:38:58;;;;;;;10.13;7.77;;;;;;;15.62;100.00;101756.69;5026289;28;20189;-71
2022/10/17 08:41:53;;;;;;;11.70;7.50;;;;;;;15.81;100.00;101797.28;5027060;28;20250;-69
2022/10/17 08:44:30;;;;;;;9.30;7.60;;;;;;;15.81;100.00;101797.28;5026489;28;20197;-69
2022/10/17 08:47:00;;;;;;;8.00;7.20;;;;;;;15.36;100.00;101717.84;5025492;28;20423;-70
2022/10/17 08:49:51;;;;;;;14.50;7.90;;;;;;;15.53;100.00;101729.06;5027514;28;20459;-71
2022/10/17 08:52:37;;;;;;;9.80;7.70;;;;;;;15.84;100.00;101771.69;5027730;28;21014;-70
2022/10/17 08:55:12;;;;;;;9.10;8.20;;;;;;;15.08;100.00;101634.31;5027866;28;20522;-70
2022/10/17 08:57:37;;;;;;;8.50;7.73;;;;;;;15.92;100.00;101773.34;5027808;28;20961;-69
2022/10/17 09:00:11;;;;;;;15.47;9.60;;;;;;;15.96;100.00;101778.13;5028326;28;20419;-70
2022/10/17 09:02:48;;;;;;;12.50;7.80;;;;;;;15.67;100.00;101727.16;5029401;28;20246;-70
2022/10/17 09:05:35;;;;;;;8.30;7.40;;;;;;;15.99;100.00;101771.44;5024042;28;20449;-70
2022/10/17 09:08:09;;;;;;;7.67;6.97;;;;;;;15.46;100.00;101691.22;5028403;28;20427;-70
2022/10/17 09:10:55;;;;;;;9.83;7.67;;;;;;;16.06;100.00;101787.69;5026447;28;21012;-70
2022/10/17 09:13:33;;;;;;;9.67;7.50;;;;;;;16.05;100.00;101800.38;5027172;28;20474;-70
2022/10/17 09:16:25;;;;;;;8.37;7.57;;;;;;;16.02;100.00;101785.38;5028815;28;20424;-70
2022/10/17 09:19:00;;;;;;;10.30;7.43;;;;;;;15.91;100.00;101772.53;5021365;28;20438;-70
2022/10/17 09:21:41;;;;;;;14.63;7.77;;;;;;;16.10;100.00;101799.75;5023858;28;20513;-70
2022/10/17 09:24:24;;;;;;;8.47;7.63;;;;;;;16.03;100.00;101791.66;5027089;28;20844;-69
2022/10/17 09:26:50;;;;;;;11.47;7.67;;;;;;;16.04;100.00;101771.66;5025140;28;20453;-71
2022/10/17 09:29:24;;;;;;;11.30;7.73;;;;;;;16.15;100.00;101783.69;5024802;28;20939;-71
2022/10/17 09:32:00;;;;;;;12.50;7.57;;;;;;;16.21;100.00;101796.38;5022546;28;20987;-71
2022/10/17 09:34:28;;;;;;;13.00;8.37;;;;;;;16.16;100.00;101794.31;5023682;28;20488;-70
2022/10/17 09:36:54;;;;;;;13.40;8.00;;;;;;;15.65;100.00;101718.41;5042038;28;20435;-71
2022/10/17 09:39:23;;;;;;;7.60;6.83;;;;;;;16.34;100.00;101815.28;5025125;28;20465;-71
2022/10/17 09:41:50;;;;;;;8.17;6.63;;;;;;;16.34;100.00;101833.41;5025214;28;20942;-70
2022/10/17 09:44:23;;;;;;;10.07;7.40;;;;;;;16.35;100.00;101897.34;5023385;28;20430;-70
2022/10/17 09:46:58;;;;;;;8.30;7.13;;;;;;;16.22;100.00;101906.31;5024797;28;20447;-70
2022/10/17 09:49:35;;;;;;;10.27;7.90;;;;;;;16.24;100.00;101912.34;5023456;28;20940;-70
2022/10/17 09:52:03;;;;;;;9.70;7.40;;;;;;;16.15;100.00;101919.03;5027701;28;20447;-69
2022/10/17 09:54:40;;;;;;;8.40;7.60;;;;;;;16.23;100.00;101935.06;5022384;28;20467;-70
2022/10/17 09:57:07;;;;;;;8.67;6.70;;;;;;;16.24;100.00;101937.53;5028248;28;20927;-71
2022/10/17 09:59:34;;;;;;;9.07;7.13;;;;;;;15.82;100.00;101868.44;5025920;28;20438;-70
2022/10/17 10:02:20;;;;;;;9.30;7.43;;;;;;;16.32;100.00;101933.81;5028404;28;20470;-71
2022/10/17 10:04:52;;;;;;;11.63;7.53;;;;;;;16.40;100.00;101947.13;5024849;28;20437;-70
2022/10/17 10:07:19;;;;;;;8.23;6.00;;;;;;;16.40;100.00;101939.00;5025316;28;20435;-71
2022/10/17 10:09:47;;;;;;;12.17;6.10;;;;;;;16.58;100.00;101951.06;5022705;28;20463;-71
2022/10/17 10:12:27;;;;;;;15.20;7.30;;;;;;;16.29;100.00;101907.16;5024532;28;20471;-72
2022/10/17 10:14:53;;;;;;;8.07;7.13;;;;;;;16.34;100.00;101903.78;5025304;28;20473;-70
2022/10/17 10:17:37;;;;;;;7.13;6.17;;;;;;;16.56;100.00;101928.75;5012172;28;20802;-70
2022/10/17 10:20:33;;;;;;;6.73;5.97;;;;;;;16.37;100.00;101900.66;5016856;28;20463;-71
2022/10/17 10:23:05;;;;;;;8.50;7.13;;;;;;;16.59;100.00;101936.44;5015717;28;20485;-71
2022/10/17 10:25:31;;;;;;;7.30;5.87;;;;;;;16.40;100.00;101922.75;5036326;28;20447;-71
2022/10/17 10:27:56;;;;;;;10.60;6.83;;;;;;;16.45;100.00;101916.69;5024314;28;20529;-70
2022/10/17 10:30:27;;;;;;;9.77;7.33;;;;;;;16.46;100.00;101924.63;5025954;28;20691;-72
2022/10/17 10:32:55;;;;;;;6.50;5.90;;;;;;;16.37;100.00;101912.31;5023474;28;20208;-71
2022/10/17 10:35:28;;;;;;;8.30;6.47;;;;;;;16.22;100.00;101900.91;5026291;28;20427;-71
2022/10/17 10:37:56;;;;;;;10.20;6.47;;;;;;;16.39;100.00;101917.53;5021939;28;20521;-71
2022/10/17 10:40:23;;;;;;;7.83;6.67;;;;;;;15.91;100.00;101851.00;5023044;28;20434;-72
2022/10/17 10:42:51;;;;;;;8.73;6.53;;;;;;;16.36;100.00;101912.53;5025206;28;20943;-71
2022/10/17 10:45:19;;;;;;;11.83;6.70;;;;;;;16.38;100.00;101905.88;5026257;28;20849;-72
2022/10/17 10:48:03;;;;;;;10.07;7.37;;;;;;;16.36;100.00;101902.53;5026963;28;20493;-70
2022/10/17 10:50:46;;;;;;;8.87;6.87;;;;;;;16.35;100.00;101909.00;5035738;28;20963;-70
2022/10/17 10:53:27;;;;;;;8.23;7.30;;;;;;;16.35;100.00;101913.59;5025369;28;20534;-70
2022/10/17 10:56:09;;;;;;;6.93;6.20;;;;;;;16.28;100.00;101927.13;5025935;28;20451;-70
2022/10/17 10:58:59;;;;;;;7.70;6.80;;;;;;;16.28;100.00;101919.81;5025778;28;20433;-70
2022/10/17 11:01:37;;;;;;;11.90;7.00;;;;;;;16.28;100.00;101919.81;5025069;28;20415;-70
2022/10/17 11:04:12;;;;;;;7.90;7.10;;;;;;;16.24;100.00;101937.53;5025910;28;20439;-70
2022/10/17 11:06:43;;;;;;;7.53;6.43;;;;;;;16.16;100.00;101932.34;5022354;28;20449;-70
2022/10/17 11:09:53;;;;;;;9.23;7.13;;;;;;;15.94;100.00;101909.22;5040822;28;20486;-70
2022/10/17 11:12:53;;;;;;;9.53;6.80;;;;;;;16.11;100.00;101948.38;5025958;28;20455;-70
2022/10/17 11:15:30;;;;;;;9.87;6.47;;;;;;;15.84;100.00;101923.19;5022878;28;20447;-70
2022/10/17 11:18:07;;;;;;;8.97;7.00;;;;;;;15.51;100.00;101878.00;5022173;28;20422;-70
2022/10/17 11:20:39;;;;;;;9.17;6.80;;;;;;;16.04;100.00;101988.97;5034621;28;20486;-70
2022/10/17 11:23:33;;;;;;;8.17;6.97;;;;;;;15.82;100.00;101952.31;5020100;28;20489;-71
2022/10/17 11:26:04;;;;;;;10.10;7.00;;;;;;;16.01;100.00;101981.25;5026725;28;20443;-70
2022/10/17 11:28:30;;;;;;;8.73;7.20;;;;;;;15.45;100.00;101897.75;5023367;28;20440;-70
2022/10/17 11:31:16;;;;;;;14.63;8.03;;;;;;;15.76;100.00;101967.50;5021655;28;20437;-70